Patillas, Puerto Rico
Current Conditions -  °F | °C
As of 7:53 PM on Tuesday 25 Nov 2014 (Local Time) from TJNR Reporting Station
Clear Clear  
Wind Chill: 80°   Ceiling: Unl
Heat Index: 84°   Visibility: 10mi
Dew Point: 72°   Wind: 10mph
Humidity: 76%   Direction: 80°E
Pressure: 30.05"   Gusts: 18mph
Location:  18.01°N, 66.01°W
Report Text: TJNR 252353Z AUTO 08009G16KT 10SM CLR 27/22 A3005 RMK AO2 SLP175 60021 T02670222 53009 $
Loading
Personal Weather Stations






























Interactive Weather Map New forecast layout! Learn more

10-Day Weather Forecast

Advertisements
Track Severe Weather on mobile